createdAt,value
2019-03-10T00:00:50.596Z,7.37
2019-03-10T00:02:50.854Z,7.35
2019-03-10T00:04:50.282Z,7.32
2019-03-10T00:06:50.561Z,7.31
2019-03-10T00:08:50.817Z,7.27
2019-03-10T00:10:49.958Z,7.22
2019-03-10T00:12:50.144Z,7.09
2019-03-10T00:14:50.309Z,7.03
2019-03-10T00:16:50.621Z,6.92
2019-03-10T00:18:50.814Z,6.87
2019-03-10T00:20:49.963Z,6.84
2019-03-10T00:22:50.181Z,6.77
2019-03-10T00:24:50.516Z,6.74
2019-03-10T00:26:49.966Z,6.68
2019-03-10T00:28:50.210Z,6.66
2019-03-10T00:30:50.503Z,6.66
2019-03-10T00:32:50.874Z,6.65
2019-03-10T00:34:50.340Z,6.61
2019-03-10T00:36:50.759Z,6.59
2019-03-10T00:38:50.322Z,6.56
2019-03-10T00:40:50.640Z,6.53
2019-03-10T00:42:50.671Z,6.53
2019-03-10T00:44:50.799Z,6.51
2019-03-10T00:46:50.613Z,6.50
2019-03-10T00:48:49.936Z,6.49
2019-03-10T00:50:50.335Z,6.49
2019-03-10T00:52:50.638Z,6.49
2019-03-10T00:54:49.888Z,6.49
2019-03-10T00:56:50.127Z,6.49
2019-03-10T00:58:50.295Z,6.50
2019-03-10T01:00:50.565Z,6.51
2019-03-10T01:02:50.817Z,6.51
2019-03-10T01:04:50.175Z,6.50
2019-03-10T01:06:50.405Z,6.48
2019-03-10T01:08:50.595Z,6.45
2019-03-10T01:10:50.702Z,6.45
2019-03-10T01:12:49.887Z,6.44
2019-03-10T01:14:50.008Z,6.43
2019-03-10T01:16:50.225Z,6.42
2019-03-10T01:18:50.413Z,6.42
2019-03-10T01:20:50.558Z,6.42
2019-03-10T01:22:50.736Z,6.41
2019-03-10T01:24:50.904Z,6.39
2019-03-10T01:26:50.220Z,6.37
2019-03-10T01:28:50.348Z,6.36
2019-03-10T01:30:50.605Z,6.33
2019-03-10T01:32:50.794Z,6.32
2019-03-10T01:34:50.168Z,6.31
2019-03-10T01:36:50.393Z,6.29
2019-03-10T01:38:50.587Z,6.28
2019-03-10T01:40:50.891Z,6.26
2019-03-10T01:42:50.136Z,6.24
2019-03-10T01:44:50.319Z,6.17
2019-03-10T01:46:50.697Z,6.14
2019-03-10T01:48:49.901Z,6.07
2019-03-10T01:50:50.058Z,6.06
2019-03-10T01:52:50.223Z,6.02
2019-03-10T01:54:50.397Z,6.01
2019-03-10T01:56:50.776Z,6.00
2019-03-10T01:58:49.882Z,5.99
2019-03-10T02:00:49.995Z,5.98
2019-03-10T02:02:50.150Z,5.94
2019-03-10T02:04:50.594Z,5.93
2019-03-10T02:06:49.905Z,5.90
2019-03-10T02:08:50.064Z,5.87
2019-03-10T02:10:50.149Z,5.85
2019-03-10T02:12:50.429Z,5.82
2019-03-10T02:14:50.713Z,5.82
2019-03-10T02:16:49.992Z,5.81
2019-03-10T02:18:50.140Z,5.80
2019-03-10T02:20:50.320Z,5.79
2019-03-10T02:22:50.490Z,5.79
2019-03-10T02:24:50.668Z,5.79
2019-03-10T02:26:50.039Z,5.81
2019-03-10T02:28:50.206Z,5.82
2019-03-10T02:30:50.368Z,5.81
2019-03-10T02:32:50.744Z,5.82
2019-03-10T02:34:50.261Z,5.79
2019-03-10T02:36:50.454Z,5.76
2019-03-10T02:38:50.657Z,5.75
2019-03-10T02:40:50.776Z,5.75
2019-03-10T02:42:49.954Z,5.76
2019-03-10T02:44:50.104Z,5.82
2019-03-10T02:46:50.341Z,5.85
2019-03-10T02:48:50.560Z,5.86
2019-03-10T02:50:50.831Z,5.87
2019-03-10T02:52:50.008Z,5.87
2019-03-10T02:54:50.264Z,5.96
2019-03-10T02:56:50.566Z,6.01
2019-03-10T02:58:50.800Z,6.37
2019-03-10T03:00:49.934Z,6.65
2019-03-10T03:02:50.072Z,6.86
2019-03-10T03:04:50.554Z,7.03
2019-03-10T03:06:50.027Z,7.34
2019-03-10T03:08:50.079Z,7.68
2019-03-10T03:10:50.229Z,7.79
2019-03-10T03:12:50.444Z,7.91
2019-03-10T03:14:50.578Z,7.97
2019-03-10T03:16:53.442Z,8.1
2019-03-10T03:18:50.740Z,8.2
2019-03-10T03:20:50.888Z,8.2
2019-03-10T03:22:50.077Z,8.3
2019-03-10T03:24:50.289Z,8.3
2019-03-10T03:26:50.736Z,8.4
2019-03-10T03:28:50.861Z,8.40
2019-03-10T03:30:50.057Z,8.37
2019-03-10T03:32:50.459Z,8.36
2019-03-10T03:34:50.000Z,8.36
2019-03-10T03:36:50.358Z,8.37
2019-03-10T03:38:50.482Z,8.37
2019-03-10T03:40:50.687Z,8.38
2019-03-10T03:42:50.835Z,8.38
2019-03-10T03:44:50.007Z,8.40
2019-03-10T03:46:50.325Z,8.43
2019-03-10T03:48:50.552Z,8.43
2019-03-10T03:50:50.697Z,8.35
2019-03-10T03:52:49.941Z,8.27
2019-03-10T03:54:50.267Z,8.21
2019-03-10T03:56:50.554Z,8.19
2019-03-10T03:58:50.781Z,8.20
2019-03-10T04:00:49.968Z,8.15
2019-03-10T04:02:50.334Z,8.06
2019-03-10T04:04:50.700Z,7.99
2019-03-10T04:06:50.052Z,7.90
2019-03-10T04:08:50.222Z,7.86
2019-03-10T04:10:50.339Z,7.83
2019-03-10T04:12:50.476Z,7.84
2019-03-10T04:14:50.715Z,7.79
2019-03-10T04:16:49.950Z,7.77
2019-03-10T04:18:50.059Z,7.74
2019-03-10T04:20:50.179Z,7.78
2019-03-10T04:22:50.363Z,7.79
2019-03-10T04:24:50.528Z,7.84
2019-03-10T04:26:50.707Z,7.86
2019-03-10T04:28:50.852Z,7.83
2019-03-10T04:30:49.937Z,7.83
2019-03-10T04:32:50.069Z,7.84
2019-03-10T04:34:50.632Z,7.84
2019-03-10T04:36:50.874Z,7.88
2019-03-10T04:38:49.956Z,7.90
2019-03-10T04:40:50.039Z,7.93
2019-03-10T04:42:50.275Z,8.02
2019-03-10T04:44:50.347Z,8.04
2019-03-10T04:46:50.528Z,8.13
2019-03-10T04:48:50.661Z,8.13
2019-03-10T04:50:50.619Z,8.19
2019-03-10T04:52:50.616Z,8.18
2019-03-10T04:54:49.783Z,8.25
2019-03-10T04:56:50.214Z,8.28
2019-03-10T04:58:50.316Z,8.32
2019-03-10T05:00:50.369Z,8.32
2019-03-10T05:02:50.338Z,8.25
2019-03-10T05:04:50.449Z,8.19
2019-03-10T05:06:50.446Z,8.01
2019-03-10T05:08:50.441Z,7.94
2019-03-10T05:10:50.455Z,7.80
2019-03-10T05:12:50.452Z,7.73
2019-03-10T05:14:50.377Z,7.67
2019-03-10T05:16:50.561Z,7.55
2019-03-10T05:18:50.541Z,7.52
2019-03-10T05:20:50.500Z,7.42
2019-03-10T05:22:50.502Z,7.38
2019-03-10T05:24:50.459Z,7.38
2019-03-10T05:26:49.954Z,7.39
2019-03-10T05:28:49.882Z,7.38
2019-03-10T05:30:49.883Z,7.35
2019-03-10T05:32:49.931Z,7.34
2019-03-10T05:34:50.141Z,7.41
2019-03-10T05:36:50.076Z,7.40
2019-03-10T05:38:50.036Z,7.34
2019-03-10T05:40:50.029Z,7.32
2019-03-10T05:42:50.067Z,7.30
2019-03-10T05:44:49.990Z,7.30
2019-03-10T05:46:50.092Z,7.39
2019-03-10T05:48:50.092Z,7.42
2019-03-10T05:50:50.032Z,7.47
2019-03-10T05:52:50.066Z,7.47
2019-03-10T05:54:50.030Z,7.47
2019-03-10T05:56:50.074Z,7.44
2019-03-10T05:58:50.012Z,7.39
2019-03-10T06:00:50.004Z,7.36
2019-03-10T06:02:49.994Z,7.34
2019-03-10T06:04:50.148Z,7.33
2019-03-10T06:06:50.174Z,7.29
2019-03-10T06:08:50.159Z,7.27
2019-03-10T06:10:50.244Z,7.26
2019-03-10T06:12:50.308Z,7.23
2019-03-10T06:14:50.270Z,7.21
2019-03-10T06:16:50.517Z,7.17
2019-03-10T06:18:50.445Z,7.16
2019-03-10T06:20:50.399Z,7.16
2019-03-10T06:22:50.393Z,7.15
2019-03-10T06:24:50.408Z,7.14
2019-03-10T06:26:50.451Z,7.13
2019-03-10T06:28:51.377Z,7.11
2019-03-10T06:30:50.378Z,7.10
2019-03-10T06:32:50.306Z,7.09
2019-03-10T06:34:50.427Z,7.09
2019-03-10T06:36:50.213Z,7.08
2019-03-10T06:38:50.166Z,7.08
2019-03-10T06:40:50.140Z,7.07
2019-03-10T06:42:50.087Z,7.08
2019-03-10T06:44:50.015Z,7.07
2019-03-10T06:46:50.111Z,7.08
2019-03-10T06:48:50.042Z,7.08
2019-03-10T06:50:50.006Z,7.08
2019-03-10T06:52:49.942Z,7.08
2019-03-10T06:54:49.876Z,7.09
2019-03-10T06:56:49.887Z,7.08
2019-03-10T06:58:49.856Z,7.08
2019-03-10T07:00:49.798Z,7.07
2019-03-10T07:02:49.730Z,7.07
2019-03-10T07:04:49.997Z,7.08
2019-03-10T07:06:49.998Z,7.07
2019-03-10T07:08:50.006Z,7.08
2019-03-10T07:10:49.996Z,7.07
2019-03-10T07:12:49.938Z,7.07
2019-03-10T07:14:49.867Z,7.06
2019-03-10T07:16:49.880Z,7.06
2019-03-10T07:18:49.836Z,7.04
2019-03-10T07:20:49.800Z,7.04
2019-03-10T07:22:49.802Z,7.06
2019-03-10T07:24:49.715Z,7.11
2019-03-10T07:26:49.805Z,7.11
2019-03-10T07:28:49.805Z,7.11
2019-03-10T07:30:49.712Z,7.12
2019-03-10T07:32:50.691Z,7.12
2019-03-10T07:34:49.928Z,7.10
2019-03-10T07:36:49.807Z,7.10
2019-03-10T07:38:49.698Z,7.14
2019-03-10T07:40:50.652Z,7.13
2019-03-10T07:42:50.302Z,7.13
2019-03-10T07:44:50.349Z,7.14
2019-03-10T07:46:50.344Z,7.15
2019-03-10T07:48:50.279Z,7.15
2019-03-10T07:50:50.302Z,7.14
2019-03-10T07:52:50.254Z,7.14
2019-03-10T07:54:50.278Z,7.14
2019-03-10T07:56:50.236Z,7.09
2019-03-10T07:58:50.290Z,7.06
2019-03-10T08:00:50.638Z,7.04
2019-03-10T08:02:49.797Z,7.04
2019-03-10T08:04:49.968Z,7.02
2019-03-10T08:06:50.071Z,7.04
2019-03-10T08:08:50.238Z,7.05
2019-03-10T08:10:50.246Z,7.04
2019-03-10T08:12:49.813Z,7.04
2019-03-10T08:14:49.805Z,7.02
2019-03-10T08:16:49.886Z,7.03
2019-03-10T08:18:49.850Z,7.03
2019-03-10T08:20:49.777Z,7.04
2019-03-10T08:22:49.755Z,7.02
2019-03-10T08:24:50.674Z,7.02
2019-03-10T08:26:49.768Z,7.04
2019-03-10T08:28:49.741Z,7.05
2019-03-10T08:30:50.122Z,7.11
2019-03-10T08:32:50.111Z,7.12
2019-03-10T08:34:49.824Z,7.12
2019-03-10T08:36:49.948Z,7.12
2019-03-10T08:38:49.874Z,7.13
2019-03-10T08:40:49.776Z,7.12
2019-03-10T08:42:50.142Z,7.11
2019-03-10T08:44:50.489Z,7.11
2019-03-10T08:46:49.800Z,7.10
2019-03-10T08:48:49.771Z,7.11
2019-03-10T08:50:49.794Z,7.15
2019-03-10T08:52:49.762Z,7.15
2019-03-10T08:54:50.687Z,7.19
2019-03-10T08:56:49.728Z,7.20
2019-03-10T08:58:49.746Z,7.19
2019-03-10T09:00:49.736Z,7.17
2019-03-10T09:02:49.867Z,7.18
2019-03-10T09:04:48.777Z,7.21
2019-03-10T09:06:49.869Z,7.24
2019-03-10T09:08:49.835Z,7.25
2019-03-10T09:10:50.201Z,7.31
2019-03-10T09:12:50.218Z,7.34
2019-03-10T09:14:50.166Z,7.46
2019-03-10T09:16:50.328Z,7.51
2019-03-10T09:18:50.406Z,7.59
2019-03-10T09:20:50.470Z,7.67
2019-03-10T09:22:50.511Z,7.76
2019-03-10T09:24:50.514Z,7.87
2019-03-10T09:26:49.748Z,7.90
2019-03-10T09:28:49.717Z,8.00
2019-03-10T09:30:50.475Z,8.05
2019-03-10T09:32:50.466Z,8.17
2019-03-10T09:34:50.421Z,8.20
2019-03-10T09:36:49.780Z,8.27
2019-03-10T09:38:49.845Z,8.35
2019-03-10T09:40:50.005Z,8.38
2019-03-10T09:42:49.775Z,8.43
2019-03-10T09:44:49.703Z,8.44
2019-03-10T09:46:50.470Z,8.44
2019-03-10T09:48:50.478Z,8.49
2019-03-10T09:50:50.469Z,8.50
2019-03-10T09:52:50.386Z,8.55
2019-03-10T09:54:49.736Z,8.55
2019-03-10T09:56:49.810Z,8.65
2019-03-10T09:58:49.758Z,8.67
2019-03-10T10:00:50.733Z,8.69
2019-03-10T10:02:50.091Z,8.76
2019-03-10T10:04:50.354Z,8.78
2019-03-10T10:06:49.968Z,8.89
2019-03-10T10:08:49.994Z,8.94
2019-03-10T10:10:50.105Z,9.08
2019-03-10T10:12:50.052Z,9.19
2019-03-10T10:14:49.995Z,9.24
2019-03-10T10:16:50.074Z,9.37
2019-03-10T10:18:50.034Z,9.43
2019-03-10T10:20:50.070Z,9.65
2019-03-10T10:22:50.116Z,9.73
2019-03-10T10:24:50.142Z,9.88
2019-03-10T10:26:49.811Z,10.01
2019-03-10T10:28:50.436Z,10.18
2019-03-10T10:30:50.345Z,10.24
2019-03-10T10:32:50.291Z,10.42
2019-03-10T10:34:50.589Z,10.65
2019-03-10T10:36:50.594Z,10.73
2019-03-10T10:38:50.523Z,10.90
2019-03-10T10:40:49.870Z,10.95
2019-03-10T10:42:49.840Z,11.04
2019-03-10T10:44:50.190Z,11.14
2019-03-10T10:46:50.252Z,11.19
2019-03-10T10:48:49.872Z,11.25
2019-03-10T10:50:49.859Z,11.26
2019-03-10T10:52:49.840Z,11.29
2019-03-10T10:54:50.561Z,11.28
2019-03-10T10:56:49.836Z,11.26
2019-03-10T10:58:50.114Z,11.28
2019-03-10T11:00:49.906Z,11.34
2019-03-10T11:02:50.040Z,11.45
2019-03-10T11:04:50.029Z,11.51
2019-03-10T11:06:50.129Z,11.67
2019-03-10T11:08:50.079Z,11.71
2019-03-10T11:10:50.195Z,11.83
2019-03-10T11:12:50.633Z,11.91
2019-03-10T11:14:50.791Z,12.03
2019-03-10T11:16:50.516Z,12.07
2019-03-10T11:18:50.629Z,12.21
2019-03-10T11:20:50.809Z,12.63
2019-03-10T11:22:50.007Z,12.78
2019-03-10T11:24:50.651Z,12.91
2019-03-10T11:26:50.755Z,13.00
2019-03-10T11:28:49.974Z,13.10
2019-03-10T11:30:49.987Z,13.18
2019-03-10T11:32:50.066Z,13.22
2019-03-10T11:34:50.513Z,13.38
2019-03-10T11:36:51.276Z,13.70
2019-03-10T11:38:50.381Z,13.74
2019-03-10T11:40:50.567Z,13.64
2019-03-10T11:42:50.694Z,13.64
2019-03-10T11:44:50.838Z,13.66
2019-03-10T11:46:50.030Z,13.57
2019-03-10T11:48:50.196Z,13.52
2019-03-10T11:50:50.309Z,13.45
2019-03-10T11:52:50.442Z,13.46
2019-03-10T11:54:50.700Z,13.40
2019-03-10T11:56:49.963Z,13.37
2019-03-10T11:58:50.223Z,13.32
2019-03-10T12:00:50.356Z,13.25
2019-03-10T12:02:50.073Z,13.26
2019-03-10T12:04:50.426Z,13.32
2019-03-10T12:06:50.648Z,13.33
2019-03-10T12:08:49.928Z,13.33
2019-03-10T12:10:50.513Z,13.43
2019-03-10T12:12:50.719Z,13.55
2019-03-10T12:14:50.804Z,13.72
2019-03-10T12:16:50.074Z,13.83
2019-03-10T12:18:50.188Z,13.92
2019-03-10T12:20:50.286Z,13.90
2019-03-10T12:22:50.425Z,13.89
2019-03-10T12:24:50.550Z,13.87
2019-03-10T12:26:50.810Z,13.86
2019-03-10T12:28:50.095Z,13.88
2019-03-10T12:30:50.229Z,13.95
2019-03-10T12:32:50.340Z,13.97
2019-03-10T12:34:49.976Z,13.85
2019-03-10T12:36:50.928Z,13.80
2019-03-10T12:38:50.270Z,13.56
2019-03-10T12:40:50.417Z,13.56
2019-03-10T12:42:50.518Z,13.00
2019-03-10T12:44:50.667Z,13.14
2019-03-10T12:46:50.880Z,13.46
2019-03-10T12:48:50.055Z,13.92
2019-03-10T12:50:50.223Z,13.40
2019-03-10T12:52:50.329Z,13.09
2019-03-10T12:54:50.521Z,12.21
2019-03-10T12:56:50.779Z,11.94
2019-03-10T12:58:49.902Z,11.95
2019-03-10T13:00:50.072Z,12.51
2019-03-10T13:02:50.174Z,13.3
2019-03-10T13:04:50.538Z,13.1
2019-03-10T13:06:50.737Z,13.1
2019-03-10T13:08:50.812Z,13.1
2019-03-10T13:10:50.038Z,12.81
2019-03-10T13:12:50.182Z,12.75
2019-03-10T13:15:00.778Z,12.69
2019-03-10T13:16:49.926Z,12.54
2019-03-10T13:18:50.034Z,12.42
2019-03-10T13:20:50.191Z,12.37
2019-03-10T13:22:50.326Z,12.34
2019-03-10T13:24:50.485Z,12.91
2019-03-10T13:26:50.765Z,13.1
2019-03-10T13:28:49.935Z,13.1
2019-03-10T13:30:50.092Z,13.1
2019-03-10T13:32:50.341Z,13.3
2019-03-10T13:34:50.680Z,13.4
2019-03-10T13:36:50.826Z,13.5
2019-03-10T13:38:49.947Z,13.5
2019-03-10T13:40:50.081Z,13.7
2019-03-10T13:42:50.210Z,13.7
2019-03-10T13:44:50.261Z,13.7
2019-03-10T13:46:50.472Z,13.7
2019-03-10T13:48:50.574Z,13.6
2019-03-10T13:50:50.669Z,13.6
2019-03-10T13:52:50.835Z,13.6
2019-03-10T13:54:49.928Z,13.6
2019-03-10T13:56:50.088Z,13.51
2019-03-10T13:58:50.161Z,13.21
2019-03-10T14:00:50.314Z,13.11
2019-03-10T14:02:50.411Z,13.09
2019-03-10T14:04:50.766Z,13.18
2019-03-10T14:06:50.165Z,13.33
2019-03-10T14:08:50.283Z,13.7
2019-03-10T14:10:50.447Z,13.7
2019-03-10T14:12:50.639Z,13.7
2019-03-10T14:14:50.747Z,13.7
2019-03-10T14:16:50.001Z,13.7
2019-03-10T14:18:50.166Z,13.8
2019-03-10T14:20:50.312Z,13.8
2019-03-10T14:22:50.431Z,13.8
2019-03-10T14:24:50.500Z,13.8
2019-03-10T14:26:50.714Z,13.9
2019-03-10T14:28:50.861Z,13.8
2019-03-10T14:30:50.042Z,13.9
2019-03-10T14:32:50.208Z,13.9
2019-03-10T14:34:50.462Z,13.9
2019-03-10T14:36:50.602Z,13.9
2019-03-10T14:38:50.658Z,13.9
2019-03-10T14:40:50.731Z,13.9
2019-03-10T14:42:50.883Z,13.68
2019-03-10T14:44:49.974Z,13.56
2019-03-10T14:46:50.238Z,13.8
2019-03-10T14:48:50.343Z,13.9
2019-03-10T14:50:50.534Z,14.0
2019-03-10T14:52:50.688Z,14.0
2019-03-10T14:54:50.794Z,14.0
2019-03-10T14:56:49.918Z,14.0
2019-03-10T14:58:50.015Z,14.0
2019-03-10T15:00:50.266Z,14.0
2019-03-10T15:02:50.488Z,14.0
2019-03-10T15:04:49.940Z,13.9
2019-03-10T15:06:50.168Z,13.9
2019-03-10T15:08:50.257Z,13.69
2019-03-10T15:10:50.414Z,13.61
2019-03-10T15:12:50.565Z,13.53
2019-03-10T15:14:50.700Z,13.51
2019-03-10T15:16:50.866Z,13.7
2019-03-10T15:18:50.031Z,13.8
2019-03-10T15:20:50.177Z,13.8
2019-03-10T15:22:50.311Z,13.8
2019-03-10T15:24:50.421Z,13.8
2019-03-10T15:26:50.596Z,13.7
2019-03-10T15:28:51.113Z,13.7
2019-03-10T15:30:51.093Z,13.60
2019-03-10T15:32:50.257Z,13.51
2019-03-10T15:34:50.580Z,13.47
2019-03-10T15:36:50.725Z,13.42
2019-03-10T15:38:49.889Z,13.41
2019-03-10T15:40:49.985Z,13.35
2019-03-10T15:42:50.094Z,13.32
2019-03-10T15:44:50.206Z,13.25
2019-03-10T15:46:50.599Z,13.23
2019-03-10T15:48:50.709Z,13.21
2019-03-10T15:50:49.974Z,13.19
2019-03-10T15:52:50.130Z,13.11
2019-03-10T15:54:50.253Z,13.08
2019-03-10T15:56:50.473Z,13.00
2019-03-10T15:58:50.579Z,12.93
2019-03-10T16:00:50.647Z,12.84
2019-03-10T16:02:50.806Z,12.74
2019-03-10T16:04:50.295Z,12.73
2019-03-10T16:06:50.567Z,12.75
2019-03-10T16:08:50.724Z,12.75
2019-03-10T16:10:50.801Z,12.73
2019-03-10T16:12:50.246Z,12.69
2019-03-10T16:14:50.307Z,12.69
2019-03-10T16:16:50.540Z,12.69
2019-03-10T16:18:51.597Z,12.63
2019-03-10T16:20:50.696Z,12.61
2019-03-10T16:22:50.817Z,12.60
2019-03-10T16:24:49.982Z,12.51
2019-03-10T16:26:50.171Z,12.49
2019-03-10T16:28:50.272Z,12.45
2019-03-10T16:30:50.398Z,12.42
2019-03-10T16:32:50.469Z,12.34
2019-03-10T16:34:50.807Z,12.30
2019-03-10T16:36:50.174Z,12.23
2019-03-10T16:38:50.309Z,12.17
2019-03-10T16:40:50.456Z,12.09
2019-03-10T16:42:50.575Z,12.02
2019-03-10T16:44:50.689Z,12.00
2019-03-10T16:46:49.923Z,11.90
2019-03-10T16:48:50.028Z,11.84
2019-03-10T16:50:50.196Z,11.68
2019-03-10T16:52:50.311Z,11.68
2019-03-10T16:54:50.448Z,11.58
2019-03-10T16:56:50.716Z,11.57
2019-03-10T16:58:50.806Z,11.55
2019-03-10T17:00:50.018Z,11.51
2019-03-10T17:02:50.195Z,11.46
2019-03-10T17:04:50.450Z,11.45
2019-03-10T17:06:50.645Z,11.41
2019-03-10T17:08:50.804Z,11.39
2019-03-10T17:10:49.958Z,11.35
2019-03-10T17:12:50.117Z,11.29
2019-03-10T17:14:50.230Z,11.24
2019-03-10T17:16:50.434Z,11.21
2019-03-10T17:18:50.566Z,11.21
2019-03-10T17:20:50.789Z,11.14
2019-03-10T17:22:49.869Z,11.08
2019-03-10T17:24:50.085Z,10.94
2019-03-10T17:26:50.276Z,10.90
2019-03-10T17:28:50.503Z,10.83
2019-03-10T17:30:50.644Z,10.74
2019-03-10T17:32:50.721Z,10.70
2019-03-10T17:34:50.021Z,10.64
2019-03-10T17:36:50.239Z,10.60
2019-03-10T17:38:50.376Z,10.53
2019-03-10T17:40:50.514Z,10.53
2019-03-10T17:42:50.685Z,10.52
2019-03-10T17:44:50.839Z,10.53
2019-03-10T17:46:50.128Z,10.53
2019-03-10T17:48:50.255Z,10.54
2019-03-10T17:50:50.339Z,10.52
2019-03-10T17:52:50.419Z,10.53
2019-03-10T17:54:50.498Z,10.47
2019-03-10T17:56:50.639Z,10.42
2019-03-10T17:58:51.056Z,10.37
2019-03-10T18:00:50.308Z,10.37
2019-03-10T18:02:50.415Z,10.27
2019-03-10T18:04:50.762Z,10.18
2019-03-10T18:06:50.013Z,10.14
2019-03-10T18:08:50.135Z,10.10
2019-03-10T18:10:50.302Z,10.06
2019-03-10T18:12:50.406Z,10.03
2019-03-10T18:14:50.491Z,10.03
2019-03-10T18:16:50.633Z,9.97
2019-03-10T18:18:50.753Z,9.91
2019-03-10T18:20:50.842Z,9.86
2019-03-10T18:22:49.988Z,9.87
2019-03-10T18:24:50.088Z,9.82
2019-03-10T18:26:50.286Z,9.77
2019-03-10T18:28:50.495Z,9.63
2019-03-10T18:30:50.663Z,9.60
2019-03-10T18:32:50.869Z,9.53
2019-03-10T18:34:50.138Z,9.50
2019-03-10T18:36:50.407Z,9.48
2019-03-10T18:38:50.470Z,9.38
2019-03-10T18:40:50.621Z,9.38
2019-03-10T18:42:50.734Z,9.33
2019-03-10T18:44:50.852Z,9.31
2019-03-10T18:46:50.211Z,9.31
2019-03-10T18:48:50.403Z,9.29
2019-03-10T18:50:50.535Z,9.27
2019-03-10T18:52:50.694Z,9.22
2019-03-10T18:54:50.813Z,9.18
2019-03-10T18:56:49.984Z,9.19
2019-03-10T18:58:50.069Z,9.18
2019-03-10T19:00:50.188Z,9.11
2019-03-10T19:02:50.349Z,9.11
2019-03-10T19:04:50.826Z,9.12
2019-03-10T19:06:49.959Z,9.14
2019-03-10T19:08:50.131Z,9.15
2019-03-10T19:10:50.273Z,9.14
2019-03-10T19:12:50.371Z,9.14
2019-03-10T19:14:50.496Z,9.01
2019-03-10T19:16:50.686Z,8.92
2019-03-10T19:18:50.855Z,8.74
2019-03-10T19:20:49.919Z,8.63
2019-03-10T19:22:51.027Z,8.54
2019-03-10T19:24:50.499Z,8.47
2019-03-10T19:26:50.812Z,8.34
2019-03-10T19:28:49.943Z,8.29
2019-03-10T19:30:50.018Z,8.27
2019-03-10T19:32:50.260Z,8.24
2019-03-10T19:34:50.593Z,8.20
2019-03-10T19:36:58.135Z,8.11
2019-03-10T19:38:50.316Z,8.05
2019-03-10T19:40:50.490Z,8.05
2019-03-10T19:42:50.584Z,8.01
2019-03-10T19:44:50.765Z,7.97
2019-03-10T19:46:50.206Z,7.94
2019-03-10T19:48:50.392Z,7.92
2019-03-10T19:50:50.501Z,7.93
2019-03-10T19:52:50.613Z,7.92
2019-03-10T19:54:50.722Z,7.92
2019-03-10T19:56:50.069Z,7.89
2019-03-10T19:58:50.243Z,7.92
2019-03-10T20:00:50.388Z,7.90
2019-03-10T20:02:50.555Z,7.90
2019-03-10T20:04:50.083Z,7.95
2019-03-10T20:06:50.339Z,7.90
2019-03-10T20:08:50.470Z,7.00
2019-03-10T20:10:50.664Z,6.48
2019-03-10T20:12:50.866Z,5.50
2019-03-10T20:14:50.073Z,4.95
2019-03-10T20:16:50.347Z,4.82
2019-03-10T20:18:50.523Z,4.60
2019-03-10T20:20:50.694Z,4.41
2019-03-10T20:22:49.920Z,4.31
2019-03-10T20:24:50.036Z,4.03
2019-03-10T20:26:50.296Z,3.91
2019-03-10T20:28:50.390Z,3.73
2019-03-10T20:30:50.516Z,3.64
2019-03-10T20:32:50.676Z,3.53
2019-03-10T20:34:50.228Z,3.48
2019-03-10T20:36:52.793Z,3.45
2019-03-10T20:38:49.939Z,3.46
2019-03-10T20:40:50.059Z,3.48
2019-03-10T20:42:50.169Z,3.53
2019-03-10T20:44:50.311Z,3.55
2019-03-10T20:46:50.570Z,3.59
2019-03-10T20:48:50.682Z,3.58
2019-03-10T20:50:50.804Z,3.59
2019-03-10T20:52:50.127Z,3.62
2019-03-10T20:54:50.322Z,3.59
2019-03-10T20:56:50.620Z,3.57
2019-03-10T20:58:50.808Z,3.60
2019-03-10T21:00:49.983Z,3.57
2019-03-10T21:02:50.157Z,3.53
2019-03-10T21:04:50.579Z,3.57
2019-03-10T21:06:50.799Z,3.55
2019-03-10T21:08:49.978Z,3.54
2019-03-10T21:10:50.178Z,3.59
2019-03-10T21:12:50.434Z,3.62
2019-03-10T21:14:50.628Z,3.79
2019-03-10T21:16:50.865Z,3.80
2019-03-10T21:18:50.078Z,3.79
2019-03-10T21:20:50.308Z,3.81
2019-03-10T21:22:50.443Z,3.84
2019-03-10T21:24:50.607Z,3.86
2019-03-10T21:26:49.909Z,3.87
2019-03-10T21:28:50.074Z,3.93
2019-03-10T21:30:50.157Z,3.95
2019-03-10T21:32:50.362Z,3.99
2019-03-10T21:34:50.654Z,4.03
2019-03-10T21:36:50.014Z,4.1
2019-03-10T21:38:50.224Z,4.1
2019-03-10T21:40:50.414Z,4.1
2019-03-10T21:42:50.694Z,4.19
2019-03-10T21:44:50.851Z,4.14
2019-03-10T21:46:50.579Z,4.1
2019-03-10T21:48:50.807Z,4.1
2019-03-10T21:50:50.039Z,4.1
2019-03-10T21:52:50.297Z,4.2
2019-03-10T21:54:50.468Z,4.1
2019-03-10T21:56:50.665Z,4.1
2019-03-10T21:58:50.820Z,4.1
2019-03-10T22:00:49.948Z,4.1
2019-03-10T22:02:50.044Z,4.10
2019-03-10T22:04:50.418Z,4.1
2019-03-10T22:06:50.707Z,4.1
2019-03-10T22:08:50.823Z,4.09
2019-03-10T22:10:50.008Z,4.06
2019-03-10T22:12:50.248Z,4.06
2019-03-10T22:14:50.384Z,4.04
2019-03-10T22:16:50.552Z,4.03
2019-03-10T22:18:50.713Z,3.97
2019-03-10T22:20:50.786Z,3.94
2019-03-10T22:22:50.713Z,3.93
2019-03-10T22:24:50.833Z,3.94
2019-03-10T22:26:50.118Z,3.93
2019-03-10T22:28:50.934Z,3.91
2019-03-10T22:30:50.173Z,3.92
2019-03-10T22:32:50.307Z,3.93
2019-03-10T22:34:50.823Z,3.99
2019-03-10T22:36:50.098Z,4.05
2019-03-10T22:38:50.290Z,4.05
2019-03-10T22:40:50.473Z,4.04
2019-03-10T22:42:50.570Z,4.04
2019-03-10T22:44:50.811Z,3.98
2019-03-10T22:46:50.140Z,4.00
2019-03-10T22:48:50.278Z,4.02
2019-03-10T22:50:50.416Z,4.01
2019-03-10T22:52:50.526Z,4.00
2019-03-10T22:54:50.696Z,4.00
2019-03-10T22:56:49.954Z,3.98
2019-03-10T22:58:50.089Z,4.01
2019-03-10T23:00:50.243Z,4.02
2019-03-10T23:02:50.387Z,3.99
2019-03-10T23:04:50.833Z,3.98
2019-03-10T23:06:50.095Z,4.01
2019-03-10T23:08:50.181Z,4.03
2019-03-10T23:10:50.333Z,4.07
2019-03-10T23:12:50.444Z,4.13
2019-03-10T23:14:50.532Z,4.15
2019-03-10T23:16:53.008Z,4.18
2019-03-10T23:18:50.202Z,4.21
2019-03-10T23:20:50.331Z,4.20
2019-03-10T23:22:50.664Z,4.19
2019-03-10T23:24:50.849Z,4.13
2019-03-10T23:26:50.198Z,4.04
2019-03-10T23:28:50.378Z,4.01
2019-03-10T23:30:50.565Z,3.96
2019-03-10T23:32:50.769Z,3.91
2019-03-10T23:34:50.109Z,3.82
2019-03-10T23:36:50.592Z,3.78
2019-03-10T23:38:50.754Z,3.75
2019-03-10T23:40:50.831Z,3.71
2019-03-10T23:42:50.039Z,3.70
2019-03-10T23:44:50.157Z,3.73
2019-03-10T23:46:50.307Z,3.72
2019-03-10T23:48:50.518Z,3.65
2019-03-10T23:50:50.622Z,3.56
2019-03-10T23:52:50.703Z,3.56
2019-03-10T23:54:50.784Z,3.55
2019-03-10T23:56:49.953Z,3.53
2019-03-10T23:58:50.057Z,3.53
